Time;durP1;ratioP1;P1;durP2;ratioP2;P2;SDS_P1;SDS_P2;PMS_P1;PMS_P2;Temp;Humidity;BMP_temperature;BMP_pressure;BME280_temperature;BME280_humidity;BME280_pressure;Samples;Min_cycle;Max_cycle;Signal;HPM_P1;HPM_P2
2022/11/07 00:01:00;;;;;;;4.72;2.10;;;;;;;12.75;94.48;99981.38;4994321;28;20232;-66
2022/11/07 00:03:26;;;;;;;3.15;1.63;;;;;;;12.80;94.52;99979.38;4994181;28;20026;-67
2022/11/07 00:05:53;;;;;;;3.45;2.00;;;;;;;12.77;95.16;99982.19;4994040;28;20030;-67
2022/11/07 00:08:19;;;;;;;2.70;1.60;;;;;;;12.77;95.19;99987.53;4995877;28;20845;-67
2022/11/07 00:10:45;;;;;;;3.38;1.77;;;;;;;12.77;95.86;99974.19;4993331;28;20026;-66
2022/11/07 00:13:10;;;;;;;4.28;1.80;;;;;;;12.77;96.16;99984.84;4993384;28;20576;-67
2022/11/07 00:15:36;;;;;;;5.10;2.40;;;;;;;12.80;96.35;99995.41;4993244;28;20462;-67
2022/11/07 00:18:01;;;;;;;3.00;1.65;;;;;;;12.78;97.02;99991.91;4993100;28;20030;-66
2022/11/07 00:20:26;;;;;;;8.25;3.40;;;;;;;12.83;96.93;99999.75;4993003;28;20459;-67
2022/11/07 00:22:52;;;;;;;4.22;1.90;;;;;;;12.83;97.42;99999.75;4993113;28;20034;-67
2022/11/07 00:25:17;;;;;;;5.72;5.13;;;;;;;12.82;97.73;99988.19;4992901;28;20038;-67
2022/11/07 00:27:42;;;;;;;5.28;3.38;;;;;;;12.81;97.30;99989.16;4992803;28;20022;-67
2022/11/07 00:30:08;;;;;;;5.22;4.22;;;;;;;12.84;98.01;99991.69;4992874;28;20359;-67
2022/11/07 00:32:34;;;;;;;2.78;1.60;;;;;;;12.51;97.96;99937.06;4992056;28;20050;-67
2022/11/07 00:34:59;;;;;;;3.40;1.48;;;;;;;12.79;98.74;99985.66;4992735;28;20157;-67
2022/11/07 00:37:25;;;;;;;2.67;1.40;;;;;;;12.84;98.66;99991.69;5003955;28;20080;-67
2022/11/07 00:39:50;;;;;;;2.47;1.60;;;;;;;12.84;99.13;99983.69;5012148;28;20088;-67
2022/11/07 00:42:15;;;;;;;4.38;1.40;;;;;;;12.87;99.17;99996.88;5013083;28;20028;-67
2022/11/07 00:44:41;;;;;;;2.08;1.40;;;;;;;12.89;98.97;99995.03;5013250;28;20112;-67
2022/11/07 00:47:06;;;;;;;4.65;2.10;;;;;;;12.85;98.88;99985.41;5006042;28;20033;-67
2022/11/07 00:49:32;;;;;;;3.53;2.20;;;;;;;12.87;99.13;100002.22;4993507;28;20470;-67
2022/11/07 00:51:57;;;;;;;3.35;1.83;;;;;;;12.87;98.96;99996.88;5008167;28;20027;-67
2022/11/07 00:54:22;;;;;;;6.10;2.70;;;;;;;12.82;99.14;99998.88;4993383;28;20062;-67
2022/11/07 00:56:48;;;;;;;3.47;1.95;;;;;;;12.77;99.83;99995.53;4993138;28;20026;-67
2022/11/07 00:59:13;;;;;;;3.65;2.00;;;;;;;12.73;99.95;100001.94;4993307;28;20118;-67
2022/11/07 01:01:39;;;;;;;3.55;2.28;;;;;;;12.72;99.92;99994.84;4993376;28;20073;-66
2022/11/07 01:06:49;;;;;;;4.72;1.90;;;;;;;12.68;100.00;100006.59;4993099;28;20088;-67
2022/11/07 01:09:19;;;;;;;3.83;1.50;;;;;;;12.70;100.00;100002.03;4992977;28;20057;-67
2022/11/07 01:11:46;;;;;;;2.15;1.40;;;;;;;12.73;100.00;99998.41;4993367;28;20580;-66
2022/11/07 01:14:13;;;;;;;3.85;2.40;;;;;;;12.72;100.00;99996.66;4992778;28;20030;-67
2022/11/07 01:16:38;;;;;;;1.63;1.25;;;;;;;12.80;100.00;100010.56;4993148;28;20022;-67
2022/11/07 01:19:05;;;;;;;7.45;6.57;;;;;;;12.84;99.99;100020.16;4992873;28;20044;-67
2022/11/07 01:21:30;;;;;;;4.18;2.08;;;;;;;12.85;99.73;100020.09;4992805;28;20125;-66
2022/11/07 01:23:56;;;;;;;3.53;1.98;;;;;;;12.90;99.54;100023.44;4994353;28;20517;-66
2022/11/07 01:26:22;;;;;;;3.40;1.80;;;;;;;12.91;99.40;100025.19;4992138;28;20034;-66
2022/11/07 01:28:47;;;;;;;4.35;1.88;;;;;;;12.91;98.80;100019.88;4991904;28;20064;-66
2022/11/07 01:31:15;;;;;;;5.28;2.25;;;;;;;12.84;99.13;100017.50;4991869;28;20447;-66
2022/11/07 01:33:41;;;;;;;3.83;2.00;;;;;;;12.92;99.10;100029.59;4991947;28;20076;-67
2022/11/07 01:36:09;;;;;;;3.60;2.08;;;;;;;12.94;98.53;100027.75;4991831;28;20109;-66
2022/11/07 01:38:39;;;;;;;3.55;1.70;;;;;;;12.95;98.76;100021.47;4992539;28;20035;-66
2022/11/07 01:41:21;;;;;;;4.20;1.70;;;;;;;12.92;98.38;100031.38;4992744;28;20032;-65
2022/11/07 01:43:54;;;;;;;4.03;2.20;;;;;;;12.89;98.39;100020.84;4992551;28;20084;-66
2022/11/07 01:46:23;;;;;;;4.35;1.85;;;;;;;12.88;98.04;100022.63;4992546;28;20484;-66
2022/11/07 01:49:06;;;;;;;4.65;1.92;;;;;;;12.89;98.31;100015.50;4992120;28;20370;-66
2022/11/07 01:51:38;;;;;;;3.40;1.70;;;;;;;12.85;98.19;100019.25;4992046;28;20030;-66
2022/11/07 01:54:05;;;;;;;2.28;1.50;;;;;;;12.82;98.25;100014.91;4992289;28;20110;-66
2022/11/07 01:56:34;;;;;;;2.90;1.52;;;;;;;12.79;98.97;100011.47;4992530;28;20382;-67
2022/11/07 01:59:01;;;;;;;5.28;2.00;;;;;;;12.77;98.17;100006.22;4992218;28;20038;-67
2022/11/07 02:01:26;;;;;;;3.40;1.60;;;;;;;12.70;98.17;100010.06;4994808;28;20022;-65
2022/11/07 02:03:55;;;;;;;3.47;1.67;;;;;;;12.64;98.47;100010.31;4991797;28;20060;-65
2022/11/07 02:06:27;;;;;;;3.17;1.60;;;;;;;12.60;98.69;100007.84;4992345;28;20473;-65
2022/11/07 02:08:53;;;;;;;2.58;1.48;;;;;;;12.57;99.33;100008.81;4991844;28;20050;-65
2022/11/07 02:11:19;;;;;;;4.07;2.00;;;;;;;12.59;99.41;100006.09;4991769;28;20026;-65
2022/11/07 02:13:45;;;;;;;3.38;1.67;;;;;;;12.58;99.42;100005.25;4991839;28;20500;-65
2022/11/07 02:16:10;;;;;;;3.15;1.75;;;;;;;12.58;98.87;100007.91;4992118;28;20243;-66
2022/11/07 02:18:40;;;;;;;3.85;1.58;;;;;;;12.56;98.94;100007.09;4991930;28;20022;-66
2022/11/07 02:21:16;;;;;;;6.07;1.63;;;;;;;12.53;99.03;100001.00;4991166;28;20621;-66
2022/11/07 02:23:55;;;;;;;2.17;1.60;;;;;;;12.55;98.18;100000.00;4990663;28;20130;-65
2022/11/07 02:26:21;;;;;;;3.22;1.88;;;;;;;12.51;97.61;100008.19;4971460;28;20113;-65
2022/11/07 02:28:48;;;;;;;5.45;2.50;;;;;;;12.46;97.66;100003.06;4985166;28;20040;-65
2022/11/07 02:31:13;;;;;;;3.38;1.48;;;;;;;12.46;97.63;100016.41;4990820;28;20054;-65
2022/11/07 02:33:38;;;;;;;6.00;2.88;;;;;;;12.46;97.36;100007.53;4990730;28;20105;-65
2022/11/07 02:36:04;;;;;;;4.43;2.17;;;;;;;12.46;97.63;100016.41;4991356;28;20466;-64
2022/11/07 02:38:33;;;;;;;4.70;2.15;;;;;;;12.46;97.40;100019.06;4991702;28;20034;-64
2022/11/07 02:41:03;;;;;;;4.07;1.98;;;;;;;12.43;98.23;100010.31;4991846;28;20040;-64
2022/11/07 02:43:31;;;;;;;3.10;1.83;;;;;;;12.43;97.90;100012.97;5006903;28;20454;-65
2022/11/07 02:45:59;;;;;;;5.70;2.30;;;;;;;12.49;97.11;100016.28;5011553;28;20085;-65
2022/11/07 02:48:40;;;;;;;3.67;1.75;;;;;;;12.44;97.39;100018.25;5011178;28;20033;-64
2022/11/07 02:51:05;;;;;;;5.95;2.13;;;;;;;12.46;97.48;100024.41;5011181;28;20432;-64
2022/11/07 02:53:30;;;;;;;5.47;3.28;;;;;;;12.46;97.75;100021.75;4991794;28;20121;-64
2022/11/07 02:55:56;;;;;;;4.13;2.30;;;;;;;12.48;97.88;100019.00;4991598;28;20022;-65
2022/11/07 02:58:21;;;;;;;4.50;2.67;;;;;;;12.47;97.44;100018.13;4991455;28;20381;-65
2022/11/07 03:00:46;;;;;;;4.15;2.22;;;;;;;12.45;97.92;100025.34;4991216;28;20140;-64
2022/11/07 03:03:12;;;;;;;4.32;1.90;;;;;;;12.49;98.07;100020.72;4992773;28;20097;-65
2022/11/07 03:05:38;;;;;;;4.10;2.47;;;;;;;12.52;97.76;100026.81;4995544;28;20026;-64
2022/11/07 03:08:03;;;;;;;3.47;2.28;;;;;;;12.54;97.85;100032.09;4996401;28;20057;-65
2022/11/07 03:10:29;;;;;;;6.13;2.20;;;;;;;12.58;97.54;100021.25;4995224;28;20041;-65
2022/11/07 03:12:54;;;;;;;18.67;2.83;;;;;;;12.63;97.85;100024.59;4995047;28;20381;-64
2022/11/07 03:15:20;;;;;;;3.42;2.35;;;;;;;12.64;97.97;100026.31;4994254;28;20034;-65
2022/11/07 03:17:45;;;;;;;5.20;1.77;;;;;;;12.67;98.14;100025.31;4994152;28;20022;-65
2022/11/07 03:20:11;;;;;;;4.03;2.28;;;;;;;12.68;98.21;100022.63;4993979;28;20041;-65
2022/11/07 03:22:37;;;;;;;4.60;2.10;;;;;;;12.69;98.60;100020.78;4994059;28;20101;-65
2022/11/07 03:25:03;;;;;;;4.80;2.25;;;;;;;12.73;98.91;100025.97;4994075;28;20025;-65
2022/11/07 03:27:29;;;;;;;5.28;1.80;;;;;;;12.76;98.69;100031.19;4994110;28;20369;-64
2022/11/07 03:29:54;;;;;;;4.05;2.08;;;;;;;12.77;98.34;100032.91;4994402;28;20026;-64
2022/11/07 03:32:21;;;;;;;6.05;2.45;;;;;;;12.80;98.23;100038.09;4997272;28;20429;-64
2022/11/07 03:34:46;;;;;;;8.32;2.85;;;;;;;12.79;98.91;100039.06;4994921;28;20036;-64
2022/11/07 03:37:12;;;;;;;6.30;2.30;;;;;;;12.81;98.53;100034.53;4994781;28;20547;-64
2022/11/07 03:39:37;;;;;;;4.57;2.08;;;;;;;12.82;98.56;100036.25;4994863;28;20114;-64
2022/11/07 03:42:03;;;;;;;2.85;1.60;;;;;;;12.83;98.54;100042.47;4994911;28;20382;-65
2022/11/07 03:44:28;;;;;;;4.15;1.80;;;;;;;12.83;98.71;100042.47;4994154;28;20026;-64
2022/11/07 03:46:54;;;;;;;4.47;1.98;;;;;;;12.84;98.36;100045.06;4994517;28;20521;-65
2022/11/07 03:49:19;;;;;;;5.25;2.05;;;;;;;12.83;98.85;100037.97;4994629;28;20034;-65
2022/11/07 03:51:45;;;;;;;3.05;1.58;;;;;;;12.81;98.89;100045.19;4994507;28;20034;-65
2022/11/07 03:54:10;;;;;;;5.90;2.00;;;;;;;12.79;98.82;100044.38;4994547;28;20030;-65
2022/11/07 03:56:35;;;;;;;3.60;1.90;;;;;;;12.82;98.68;100054.94;4994454;28;20032;-65
2022/11/07 03:59:01;;;;;;;7.78;1.50;;;;;;;12.82;98.84;100057.59;4994407;28;20034;-65
2022/11/07 04:01:26;;;;;;;2.90;1.80;;;;;;;12.70;99.35;100041.22;4994464;28;20022;-64
2022/11/07 04:03:52;;;;;;;5.00;1.83;;;;;;;12.78;99.69;100072.00;4994196;28;20030;-64
2022/11/07 04:06:18;;;;;;;5.00;1.58;;;;;;;12.80;99.41;100075.47;4994277;28;20030;-65
2022/11/07 04:08:43;;;;;;;3.92;2.00;;;;;;;12.77;99.56;100062.25;4994022;28;20054;-65
2022/11/07 04:17:17;;;;;;;3.38;1.60;;;;;;;12.81;99.75;100066.56;4996685;28;20030;-65
2022/11/07 04:19:25;;;;;;;5.72;1.80;;;;;;;12.85;100.00;100072.66;4994166;28;20105;-64
2022/11/07 04:21:50;;;;;;;3.72;1.90;;;;;;;12.86;100.00;100080.59;4993966;28;20057;-66
2022/11/07 04:24:16;;;;;;;3.05;1.50;;;;;;;12.89;100.00;100077.78;4993883;28;20058;-65
2022/11/07 04:29:25;;;;;;;5.47;1.75;;;;;;;12.93;100.00;100074.03;4993477;28;20092;-67
2022/11/07 04:31:50;;;;;;;2.65;1.52;;;;;;;12.93;100.00;100079.38;4993212;28;20026;-65
2022/11/07 04:34:16;;;;;;;3.85;1.67;;;;;;;13.02;100.00;100076.38;4993821;28;20117;-66
2022/11/07 04:36:41;;;;;;;6.10;2.10;;;;;;;13.07;99.69;100079.72;4993741;28;20026;-67
2022/11/07 04:39:07;;;;;;;6.05;2.38;;;;;;;13.02;99.98;100055.03;4993720;28;20038;-64
2022/11/07 04:41:32;;;;;;;3.95;1.70;;;;;;;13.13;100.00;100071.44;4993702;28;20104;-65
2022/11/07 04:43:57;;;;;;;4.78;2.40;;;;;;;13.18;99.38;100069.47;5001843;28;20100;-65
2022/11/07 04:46:23;;;;;;;2.65;1.42;;;;;;;13.18;98.69;100077.47;5013140;28;20029;-65
2022/11/07 04:48:49;;;;;;;3.42;1.60;;;;;;;13.23;98.23;100067.47;5013173;28;20068;-65
2022/11/07 04:51:17;;;;;;;5.03;1.85;;;;;;;13.24;98.28;100061.16;5011993;28;20030;-64
2022/11/07 04:53:43;;;;;;;4.07;1.58;;;;;;;13.28;97.82;100071.75;4993541;28;20022;-65
2022/11/07 04:56:08;;;;;;;5.43;2.17;;;;;;;13.26;98.16;100066.47;4993361;28;20497;-65
2022/11/07 04:58:34;;;;;;;5.43;2.05;;;;;;;13.29;97.88;100073.47;4993732;28;20129;-65
2022/11/07 05:00:59;;;;;;;4.72;2.03;;;;;;;13.33;97.32;100069.75;4993394;28;20033;-65
2022/11/07 05:03:25;;;;;;;5.95;2.33;;;;;;;13.39;97.38;100080.16;4992998;28;20498;-65
2022/11/07 05:05:50;;;;;;;3.45;2.35;;;;;;;13.37;97.22;100076.69;4993057;28;20079;-66
2022/11/07 05:08:15;;;;;;;4.35;2.20;;;;;;;13.37;97.16;100076.69;4993313;28;20046;-64
2022/11/07 05:10:41;;;;;;;4.97;3.17;;;;;;;13.38;97.00;100078.44;4993121;28;20034;-65
2022/11/07 05:13:06;;;;;;;2.97;1.58;;;;;;;13.34;97.67;100088.38;4993162;28;20022;-65
2022/11/07 05:15:32;;;;;;;5.35;2.38;;;;;;;13.33;97.83;100080.44;4995475;28;20444;-64
2022/11/07 05:17:57;;;;;;;3.35;1.83;;;;;;;13.38;97.28;100067.75;4993038;28;20458;-66
2022/11/07 05:20:34;;;;;;;4.35;2.10;;;;;;;13.33;97.23;100081.28;4992684;28;20045;-65
2022/11/07 05:23:13;;;;;;;6.22;2.00;;;;;;;13.35;97.42;100073.19;4992667;28;20029;-65
2022/11/07 05:25:50;;;;;;;6.53;3.30;;;;;;;13.35;96.77;100092.78;4992314;28;20113;-65
2022/11/07 05:28:18;;;;;;;8.10;3.38;;;;;;;13.36;97.49;100091.00;4993127;28;20032;-64
2022/11/07 05:30:44;;;;;;;9.40;2.78;;;;;;;13.33;98.27;100097.31;4994314;28;20034;-64
2022/11/07 05:33:12;;;;;;;6.57;2.50;;;;;;;13.37;97.69;100090.03;5012284;28;20022;-65
2022/11/07 05:35:38;;;;;;;3.90;1.75;;;;;;;13.34;97.42;100082.16;5012329;28;20420;-65
2022/11/07 05:38:03;;;;;;;7.18;2.60;;;;;;;13.32;97.63;100092.03;5012298;28;20032;-65
2022/11/07 05:40:29;;;;;;;5.53;2.72;;;;;;;13.26;97.86;100089.63;5012202;28;20104;-66
2022/11/07 05:42:59;;;;;;;5.45;2.67;;;;;;;13.21;98.17;100088.00;5012199;28;20032;-65
2022/11/07 05:45:26;;;;;;;3.13;1.60;;;;;;;13.19;98.66;100083.69;5001574;28;20034;-65
2022/11/07 05:48:02;;;;;;;3.35;1.60;;;;;;;13.14;98.69;100080.34;4992714;28;20073;-65
2022/11/07 05:50:28;;;;;;;5.65;2.22;;;;;;;13.14;98.32;100080.34;4992151;28;20492;-64
2022/11/07 05:52:54;;;;;;;7.78;2.33;;;;;;;13.09;98.22;100087.66;4992273;28;20411;-65
2022/11/07 05:55:20;;;;;;;5.85;2.00;;;;;;;13.03;98.80;100091.47;4992213;28;20064;-65
2022/11/07 05:57:46;;;;;;;10.55;2.55;;;;;;;13.01;99.32;100089.78;4992155;28;20370;-64
2022/11/07 06:00:12;;;;;;;8.02;3.58;;;;;;;12.98;99.72;100085.41;4992046;28;20037;-65
2022/11/07 06:02:38;;;;;;;11.52;5.15;;;;;;;12.92;99.72;100085.66;4992296;28;20073;-65
2022/11/07 06:05:04;;;;;;;9.68;4.55;;;;;;;12.90;99.44;100076.84;4991951;28;20037;-65
2022/11/07 06:07:37;;;;;;;4.80;2.67;;;;;;;12.97;100.00;100089.00;4992179;28;20046;-65
2022/11/07 06:10:04;;;;;;;5.77;2.67;;;;;;;12.91;100.00;100081.28;4992283;28;20149;-65
2022/11/07 06:12:30;;;;;;;7.78;2.53;;;;;;;12.97;100.00;100091.69;4991790;28;20037;-65
2022/11/07 06:14:55;;;;;;;5.45;2.22;;;;;;;12.99;100.00;100092.50;4992061;28;20026;-65
2022/11/07 06:17:20;;;;;;;4.72;2.63;;;;;;;13.02;100.00;100100.41;4992330;28;20445;-64
2022/11/07 06:19:46;;;;;;;8.90;2.42;;;;;;;13.00;100.00;100096.91;4993767;28;20034;-65
2022/11/07 06:22:11;;;;;;;9.35;2.85;;;;;;;13.10;100.00;100100.97;4991307;28;20382;-65
2022/11/07 06:24:37;;;;;;;7.30;2.20;;;;;;;13.07;99.96;100098.41;4991235;28;20032;-65
2022/11/07 06:27:02;;;;;;;5.90;2.22;;;;;;;13.08;99.83;100092.13;4990956;28;20096;-65
2022/11/07 06:29:28;;;;;;;3.85;1.88;;;;;;;13.10;99.99;100105.41;4991235;28;20022;-66
2022/11/07 06:31:53;;;;;;;6.03;2.30;;;;;;;13.06;100.00;100098.50;4989743;28;20420;-65
2022/11/07 06:34:18;;;;;;;6.13;1.85;;;;;;;13.08;100.00;100094.81;4989204;28;20061;-66
2022/11/07 06:36:45;;;;;;;8.43;2.47;;;;;;;13.09;99.98;100095.69;4990872;28;20117;-65
2022/11/07 06:39:10;;;;;;;9.82;2.47;;;;;;;13.08;99.90;100102.81;4990766;28;20109;-65
2022/11/07 06:41:36;;;;;;;6.90;2.33;;;;;;;13.08;99.87;100102.81;4991397;28;20489;-65
2022/11/07 06:44:02;;;;;;;10.05;2.00;;;;;;;13.23;99.47;100111.16;4992089;28;20028;-65
2022/11/07 06:46:27;;;;;;;8.02;2.00;;;;;;;13.07;99.94;100109.09;4991574;28;20454;-66
2022/11/07 06:48:53;;;;;;;5.60;1.65;;;;;;;13.02;99.76;100108.44;4994088;28;20105;-65
2022/11/07 06:51:19;;;;;;;6.00;1.90;;;;;;;13.04;99.99;100117.25;4991386;28;20026;-66
2022/11/07 06:53:44;;;;;;;8.15;2.17;;;;;;;13.04;99.78;100119.91;4990943;28;20038;-65
2022/11/07 06:56:13;;;;;;;4.82;1.70;;;;;;;13.05;99.84;100118.97;4990486;28;20477;-65
2022/11/07 06:58:39;;;;;;;5.03;1.77;;;;;;;13.11;99.88;100118.72;4990598;28;20406;-65
2022/11/07 07:01:12;;;;;;;5.50;2.25;;;;;;;13.16;99.83;100119.38;4990750;28;20026;-65
2022/11/07 07:03:39;;;;;;;4.93;1.50;;;;;;;13.21;98.84;100120.06;4989500;28;20050;-66
2022/11/07 07:06:07;;;;;;;4.40;1.48;;;;;;;13.27;98.16;100124.31;4989947;28;20117;-66
2022/11/07 07:08:33;;;;;;;3.50;1.30;;;;;;;13.37;97.84;100130.13;4990127;28;20069;-66
2022/11/07 07:11:06;;;;;;;4.85;1.60;;;;;;;13.45;97.87;100131.53;4991234;28;20045;-66
2022/11/07 07:13:32;;;;;;;4.28;2.05;;;;;;;13.46;96.88;100130.59;4991314;28;20030;-66
2022/11/07 07:15:58;;;;;;;7.63;2.85;;;;;;;13.57;96.82;100139.03;4989907;28;20397;-65
2022/11/07 07:18:24;;;;;;;6.95;2.50;;;;;;;13.63;96.22;100144.13;4986840;28;20037;-66
2022/11/07 07:20:51;;;;;;;6.72;2.65;;;;;;;13.66;95.67;100133.28;4990461;28;20061;-66
2022/11/07 07:23:18;;;;;;;5.90;2.55;;;;;;;13.73;95.20;100141.91;4985455;28;20030;-66
2022/11/07 07:25:45;;;;;;;4.65;2.10;;;;;;;13.77;95.20;100139.03;4994140;28;20486;-65
2022/11/07 07:28:10;;;;;;;4.57;1.95;;;;;;;13.87;94.72;100143.03;5000790;28;20030;-66
2022/11/07 07:30:38;;;;;;;6.18;1.90;;;;;;;13.92;94.82;100146.38;4985876;28;20473;-65
2022/11/07 07:33:04;;;;;;;3.55;1.70;;;;;;;14.04;94.17;100144.97;4989885;28;20517;-65
2022/11/07 07:35:29;;;;;;;7.47;2.50;;;;;;;14.30;93.20;100152.72;4991351;28;20072;-65
2022/11/07 07:37:55;;;;;;;7.43;1.73;;;;;;;14.51;90.93;100160.63;4987644;28;20338;-65
2022/11/07 07:40:20;;;;;;;3.83;1.90;;;;;;;14.51;90.05;100151.75;4991286;28;20097;-65
2022/11/07 07:42:46;;;;;;;5.43;2.00;;;;;;;14.45;89.55;100149.34;4987574;28;20058;-65
2022/11/07 07:45:12;;;;;;;5.25;2.58;;;;;;;14.31;89.15;100144.66;4988618;28;20141;-66
2022/11/07 07:47:39;;;;;;;5.97;2.03;;;;;;;14.30;89.87;100150.03;4990308;28;20157;-65
2022/11/07 07:50:06;;;;;;;6.40;1.70;;;;;;;14.31;89.63;100146.44;4990892;28;20045;-65
2022/11/07 07:52:31;;;;;;;6.05;1.50;;;;;;;14.29;89.08;100146.53;4993281;28;20038;-65
2022/11/07 07:54:57;;;;;;;5.40;1.90;;;;;;;14.35;89.48;100140.88;4992849;28;20025;-65
2022/11/07 07:57:23;;;;;;;4.80;1.65;;;;;;;14.11;89.02;100114.34;4991020;28;20041;-66
2022/11/07 07:59:48;;;;;;;2.40;1.38;;;;;;;14.28;89.14;100147.44;4992894;28;20026;-65
2022/11/07 08:02:14;;;;;;;4.32;1.92;;;;;;;14.39;89.88;100146.97;4993774;28;20022;-66
2022/11/07 08:04:40;;;;;;;5.15;2.08;;;;;;;14.42;88.81;100146.81;4989970;28;20611;-65
2022/11/07 08:07:05;;;;;;;5.03;1.63;;;;;;;14.58;88.23;100155.03;4990797;28;20030;-66
2022/11/07 08:09:35;;;;;;;5.75;1.70;;;;;;;14.68;87.89;100154.50;4992825;28;20050;-65
2022/11/07 08:12:05;;;;;;;6.25;1.60;;;;;;;14.94;86.49;100147.94;4990491;28;20042;-66
2022/11/07 08:14:31;;;;;;;5.43;2.30;;;;;;;15.31;85.22;100135.31;4989917;28;20030;-65
2022/11/07 08:16:57;;;;;;;9.35;2.05;;;;;;;15.93;82.03;100153.59;4986776;28;20458;-66
2022/11/07 08:19:23;;;;;;;3.55;1.63;;;;;;;17.07;77.42;100146.41;4987949;28;20058;-67
2022/11/07 08:21:49;;;;;;;3.13;1.45;;;;;;;17.74;70.85;100146.94;4989209;28;20030;-66
2022/11/07 08:24:14;;;;;;;4.00;1.23;;;;;;;18.02;68.21;100149.69;4986280;28;20517;-66
2022/11/07 08:26:40;;;;;;;7.35;1.85;;;;;;;18.84;66.39;100160.75;4986831;28;20110;-66
2022/11/07 08:29:06;;;;;;;5.07;1.90;;;;;;;18.56;65.55;100158.94;4987208;28;20026;-66
2022/11/07 08:31:31;;;;;;;2.90;1.20;;;;;;;17.93;66.96;100154.78;4985960;28;20034;-66
2022/11/07 08:33:57;;;;;;;4.75;1.40;;;;;;;17.27;69.41;100153.31;4987513;28;20026;-66
2022/11/07 08:36:23;;;;;;;6.15;1.13;;;;;;;16.84;70.90;100160.28;4991189;28;20100;-66
2022/11/07 08:38:49;;;;;;;3.20;1.35;;;;;;;16.47;73.51;100160.56;4990559;28;20030;-66
2022/11/07 08:41:14;;;;;;;2.92;1.52;;;;;;;16.27;75.36;100158.94;4990642;28;20015;-67
2022/11/07 08:43:40;;;;;;;3.95;1.60;;;;;;;16.22;76.39;100163.69;4992725;28;20485;-67
2022/11/07 08:46:05;;;;;;;6.32;1.50;;;;;;;16.09;76.51;100159.03;4990432;28;20134;-67
2022/11/07 08:48:30;;;;;;;4.60;1.42;;;;;;;15.92;78.40;100164.41;4992672;28;20036;-66
2022/11/07 08:50:57;;;;;;;3.72;1.10;;;;;;;15.81;79.63;100160.47;4992834;28;20031;-67
2022/11/07 08:53:23;;;;;;;5.18;1.42;;;;;;;15.81;80.21;100163.13;4990808;28;20543;-66
2022/11/07 08:55:49;;;;;;;4.78;1.40;;;;;;;15.85;80.27;100168.38;4988713;28;20077;-67
2022/11/07 08:58:14;;;;;;;8.82;1.73;;;;;;;15.79;79.90;100167.75;4992748;28;20022;-66
2022/11/07 09:00:40;;;;;;;4.32;2.10;;;;;;;15.79;79.77;100173.09;4992221;28;20108;-67
2022/11/07 09:03:07;;;;;;;3.40;1.83;;;;;;;15.77;79.45;100168.75;4988797;28;20046;-66
2022/11/07 09:05:33;;;;;;;3.60;1.73;;;;;;;15.70;79.66;100178.91;4992391;28;20080;-66
2022/11/07 09:07:59;;;;;;;4.30;2.00;;;;;;;15.71;79.79;100172.63;4988721;28;20139;-67
2022/11/07 09:10:24;;;;;;;7.00;3.20;;;;;;;15.57;79.75;100164.41;4992426;28;20204;-67
2022/11/07 09:12:50;;;;;;;6.28;1.83;;;;;;;15.65;79.52;100174.72;4992233;28;20042;-66
2022/11/07 09:15:17;;;;;;;2.60;1.27;;;;;;;15.61;79.02;100181.22;4988278;28;20026;-67
2022/11/07 09:17:43;;;;;;;6.50;1.73;;;;;;;15.68;80.17;100177.28;4991811;28;20030;-67
2022/11/07 09:20:09;;;;;;;3.55;1.60;;;;;;;15.72;79.57;100178.84;4992494;28;20041;-67
2022/11/07 09:22:35;;;;;;;8.82;3.58;;;;;;;15.83;79.13;100182.72;4987836;28;20042;-67
2022/11/07 09:25:01;;;;;;;5.50;1.92;;;;;;;16.07;78.88;100169.84;4988403;28;20125;-66
2022/11/07 09:27:26;;;;;;;6.10;1.98;;;;;;;17.08;75.39;100166.97;4986131;28;20030;-66
2022/11/07 09:29:52;;;;;;;6.75;1.73;;;;;;;17.44;72.86;100172.06;4988473;28;20764;-66
2022/11/07 09:32:17;;;;;;;4.63;1.80;;;;;;;17.79;71.73;100160.97;4986823;28;20091;-67
2022/11/07 09:34:45;;;;;;;3.40;1.60;;;;;;;17.80;69.54;100170.81;4986023;28;20108;-67
2022/11/07 09:37:11;;;;;;;5.47;1.80;;;;;;;17.79;69.67;100179.81;4988304;28;20118;-67
2022/11/07 09:39:37;;;;;;;6.90;2.33;;;;;;;18.08;69.95;100170.00;4985885;28;20424;-67
2022/11/07 09:42:05;;;;;;;5.47;2.10;;;;;;;18.42;67.92;100168.84;4984672;28;20030;-66
2022/11/07 09:44:54;;;;;;;5.05;2.20;;;;;;;19.32;64.49;100177.31;4984817;28;20034;-67
2022/11/07 09:47:31;;;;;;;6.05;2.65;;;;;;;20.79;59.52;100160.75;4985674;28;20062;-67
2022/11/07 09:50:02;;;;;;;4.75;1.92;;;;;;;21.74;53.61;100167.19;4985270;28;20030;-66
2022/11/07 09:52:46;;;;;;;2.50;1.10;;;;;;;22.30;51.59;100178.22;4984868;28;20030;-67
2022/11/07 09:55:29;;;;;;;5.40;1.50;;;;;;;22.68;51.15;100190.53;4985714;28;20026;-66
2022/11/07 09:58:00;;;;;;;5.15;1.15;;;;;;;22.59;49.53;100190.38;4984856;28;20038;-67
2022/11/07 10:00:29;;;;;;;5.07;1.20;;;;;;;22.23;50.45;100182.38;4985240;28;20041;-66
2022/11/07 10:02:56;;;;;;;8.73;1.77;;;;;;;21.51;52.01;100199.66;4985039;28;20064;-67
2022/11/07 10:05:50;;;;;;;5.05;1.67;;;;;;;20.85;54.12;100187.38;4988996;28;20101;-67
2022/11/07 10:08:18;;;;;;;;;;;;;;;20.31;56.16;100201.19;4990529;28;20054;-65
2022/11/07 10:10:56;;;;;;;3.67;1.20;;;;;;;19.72;58.21;100196.28;4990810;28;20412;-67
2022/11/07 10:13:40;;;;;;;9.02;2.30;;;;;;;19.21;61.44;100196.00;4989213;28;20030;-66
2022/11/07 10:16:16;;;;;;;3.38;1.23;;;;;;;18.80;62.40;100200.50;4989048;28;20032;-65
2022/11/07 10:19:15;;;;;;;4.72;1.02;;;;;;;18.49;64.49;100195.28;4988579;28;20485;-66
2022/11/07 10:21:59;;;;;;;2.97;1.58;;;;;;;18.34;66.51;100197.06;4985015;28;20037;-66
2022/11/07 10:24:43;;;;;;;3.58;1.35;;;;;;;18.17;66.20;100191.84;4984969;28;20454;-65
2022/11/07 10:27:11;;;;;;;3.70;0.98;;;;;;;17.93;67.09;100190.63;4986656;28;20033;-67
2022/11/07 10:29:49;;;;;;;2.80;1.25;;;;;;;17.93;68.22;100198.72;4987647;28;20120;-65
2022/11/07 10:32:34;;;;;;;5.57;1.55;;;;;;;17.78;68.48;100196.94;4988730;28;20030;-65
2022/11/07 10:35:11;;;;;;;5.05;1.27;;;;;;;17.64;68.99;100199.56;4991395;28;20092;-65
2022/11/07 10:37:37;;;;;;;3.88;1.40;;;;;;;17.61;69.66;100194.34;4988287;28;20034;-65
2022/11/07 10:40:16;;;;;;;4.82;1.30;;;;;;;17.60;69.70;100197.13;4986945;28;20029;-65
2022/11/07 10:42:44;;;;;;;4.15;1.20;;;;;;;17.62;69.39;100201.47;4988688;28;20026;-66
2022/11/07 10:45:16;;;;;;;3.83;1.20;;;;;;;17.52;70.50;100170.69;4988374;28;20037;-66
2022/11/07 10:47:41;;;;;;;3.03;1.40;;;;;;;17.68;70.45;100198.41;4986280;28;20604;-67
2022/11/07 10:50:19;;;;;;;2.50;1.15;;;;;;;17.62;69.76;100189.84;4985526;28;20019;-67
2022/11/07 10:52:59;;;;;;;5.93;1.02;;;;;;;17.64;69.75;100193.31;4988256;28;20397;-67
2022/11/07 10:55:26;;;;;;;3.80;1.25;;;;;;;17.53;69.90;100191.25;4990841;28;20037;-67
2022/11/07 10:57:58;;;;;;;4.13;1.10;;;;;;;17.55;70.84;100183.97;4986796;28;20363;-66
2022/11/07 11:00:29;;;;;;;5.13;1.40;;;;;;;17.59;69.99;100185.53;4986274;28;20073;-66
2022/11/07 11:02:56;;;;;;;6.43;1.55;;;;;;;17.75;68.92;100178.28;4984374;28;20022;-66
2022/11/07 11:05:27;;;;;;;3.05;1.38;;;;;;;17.86;68.63;100183.88;4988752;28;20057;-67
2022/11/07 11:08:12;;;;;;;2.42;1.27;;;;;;;17.96;68.85;100182.38;4985396;28;20039;-66
2022/11/07 11:10:38;;;;;;;3.70;1.63;;;;;;;18.02;69.28;100173.91;4988169;28;20033;-67
2022/11/07 11:13:04;;;;;;;2.20;1.20;;;;;;;18.14;69.40;100173.19;4985872;28;20141;-66
2022/11/07 11:15:30;;;;;;;2.67;1.20;;;;;;;18.08;68.15;100178.97;4985569;28;20030;-66
2022/11/07 11:17:59;;;;;;;3.50;0.88;;;;;;;18.04;67.57;100171.13;4987808;28;20034;-66
2022/11/07 11:20:35;;;;;;;2.78;1.30;;;;;;;18.00;67.98;100178.56;4985129;28;20030;-67
2022/11/07 11:23:04;;;;;;;4.72;1.27;;;;;;;17.99;68.76;100173.25;4985430;28;20088;-67
2022/11/07 11:25:29;;;;;;;4.57;1.70;;;;;;;18.06;68.71;100169.22;4989852;28;20053;-66
2022/11/07 11:28:05;;;;;;;3.13;1.23;;;;;;;18.33;66.86;100162.16;4989155;28;20118;-66
2022/11/07 11:30:34;;;;;;;7.78;1.80;;;;;;;18.55;66.73;100167.13;4992394;28;20374;-67
2022/11/07 11:33:25;;;;;;;3.97;1.80;;;;;;;18.55;67.70;100172.50;4992755;28;20088;-66
2022/11/07 11:36:06;;;;;;;4.20;1.42;;;;;;;18.57;66.36;100162.47;4990260;28;20169;-67
2022/11/07 11:38:38;;;;;;;5.55;1.10;;;;;;;18.45;65.50;100164.09;4991934;28;20022;-66